createdAt,value
2017-10-31T00:00:10.092Z,98327.73
2017-10-31T00:00:41.793Z,98332.78
2017-10-31T00:01:13.442Z,98333.19
2017-10-31T00:01:45.097Z,98338.25
2017-10-31T00:02:16.745Z,98330.97
2017-10-31T00:02:48.394Z,98330.53
2017-10-31T00:03:20.041Z,98334.38
2017-10-31T00:03:51.695Z,98326.70
2017-10-31T00:04:23.354Z,98324.55
2017-10-31T00:04:55.230Z,98324.07
2017-10-31T00:05:26.886Z,98328.33
2017-10-31T00:05:58.606Z,98322.74
2017-10-31T00:06:30.298Z,98328.66
2017-10-31T00:07:01.954Z,98323.11
2017-10-31T00:07:33.741Z,98332.05
2017-10-31T00:08:05.393Z,98323.52
2017-10-31T00:08:37.037Z,98326.02
2017-10-31T00:09:08.725Z,98326.82
2017-10-31T00:09:40.369Z,98323.84
2017-10-31T00:10:12.257Z,98325.07
2017-10-31T00:10:43.916Z,98324.15
2017-10-31T00:11:15.566Z,98322.88
2017-10-31T00:11:47.214Z,98323.72
2017-10-31T00:12:18.907Z,98328.84
2017-10-31T00:12:50.775Z,98325.44
2017-10-31T00:13:22.425Z,98324.20
2017-10-31T00:13:54.078Z,98325.48
2017-10-31T00:14:25.725Z,98324.58
2017-10-31T00:14:57.369Z,98329.70
2017-10-31T00:15:29.013Z,98324.98
2017-10-31T00:16:00.662Z,98328.34
2017-10-31T00:16:32.544Z,98330.05
2017-10-31T00:17:04.216Z,98324.98
2017-10-31T00:17:35.866Z,98327.93
2017-10-31T00:18:07.513Z,98324.63
2017-10-31T00:18:39.197Z,98323.84
2017-10-31T00:19:10.846Z,98328.11
2017-10-31T00:19:42.733Z,98329.38
2017-10-31T00:20:14.386Z,98328.05
2017-10-31T00:20:46.037Z,98326.75
2017-10-31T00:21:17.689Z,98328.36
2017-10-31T00:21:49.608Z,98326.64
2017-10-31T00:22:21.257Z,98324.89
2017-10-31T00:22:52.905Z,98332.61
2017-10-31T00:23:24.550Z,98334.73
2017-10-31T00:23:56.205Z,98336.03
2017-10-31T00:24:27.869Z,98336.03
2017-10-31T00:24:59.514Z,98336.04
2017-10-31T00:25:31.166Z,98336.89
2017-10-31T00:26:02.818Z,98331.83
2017-10-31T00:26:34.472Z,98331.83
2017-10-31T00:27:06.157Z,98333.16
2017-10-31T00:27:37.805Z,98331.94
2017-10-31T00:28:09.455Z,98332.78
2017-10-31T00:28:41.117Z,98336.20
2017-10-31T00:29:12.782Z,98332.79
2017-10-31T00:29:44.442Z,98329.86
2017-10-31T00:30:16.094Z,98329.02
2017-10-31T00:30:47.754Z,98334.98
2017-10-31T00:31:19.470Z,98334.98
2017-10-31T00:31:51.126Z,98327.78
2017-10-31T00:32:22.778Z,98332.48
2017-10-31T00:32:54.429Z,98332.91
2017-10-31T00:33:26.078Z,98331.21
2017-10-31T00:33:57.738Z,98327.36
2017-10-31T00:34:29.629Z,98325.25
2017-10-31T00:35:01.286Z,98331.69
2017-10-31T00:35:32.934Z,98326.14
2017-10-31T00:36:04.585Z,98331.31
2017-10-31T00:36:36.229Z,98324.49
2017-10-31T00:37:07.874Z,98326.16
2017-10-31T00:37:39.521Z,98327.02
2017-10-31T00:38:11.176Z,98329.63
2017-10-31T00:38:42.822Z,98330.97
2017-10-31T00:39:14.713Z,98333.09
2017-10-31T00:39:46.516Z,98334.38
2017-10-31T00:40:18.161Z,98323.77
2017-10-31T00:40:49.863Z,98333.99
2017-10-31T00:41:21.513Z,98334.00
2017-10-31T00:41:53.161Z,98330.57
2017-10-31T00:42:24.833Z,98336.08
2017-10-31T00:42:56.823Z,98336.12
2017-10-31T00:43:28.474Z,98329.78
2017-10-31T00:44:00.121Z,98333.63
2017-10-31T00:44:31.809Z,98329.35
2017-10-31T00:45:03.699Z,98331.42
2017-10-31T00:45:35.349Z,98330.59
2017-10-31T00:46:07.003Z,98328.52
2017-10-31T00:46:38.824Z,98328.11
2017-10-31T00:47:10.566Z,98331.53
2017-10-31T00:47:42.519Z,98328.97
2017-10-31T00:48:14.209Z,98336.26
2017-10-31T00:48:45.861Z,98333.70
2017-10-31T00:49:17.517Z,98330.34
2017-10-31T00:49:49.165Z,98332.91
2017-10-31T00:50:21.032Z,98335.41
2017-10-31T00:50:52.730Z,98331.19
2017-10-31T00:51:24.616Z,98334.55
2017-10-31T00:51:56.269Z,98335.36
2017-10-31T00:52:27.922Z,98334.50
2017-10-31T00:52:59.566Z,98334.92
2017-10-31T00:53:31.222Z,98329.88
2017-10-31T00:54:02.885Z,98329.92
2017-10-31T00:54:34.929Z,98341.48
2017-10-31T00:55:06.578Z,98332.11
2017-10-31T00:55:38.224Z,98332.11
2017-10-31T00:56:10.019Z,98341.48
2017-10-31T00:56:41.859Z,98339.34
2017-10-31T00:57:13.609Z,98342.28
2017-10-31T00:57:45.450Z,98336.75
2017-10-31T00:58:17.200Z,98337.59
2017-10-31T00:58:48.849Z,98340.21
2017-10-31T00:59:20.494Z,98346.61
2017-10-31T00:59:52.151Z,98341.97
2017-10-31T01:00:24.042Z,98343.68
2017-10-31T01:00:55.721Z,98342.83
2017-10-31T01:01:27.369Z,98336.91
2017-10-31T01:01:59.021Z,98343.72
2017-10-31T01:02:30.674Z,98333.03
2017-10-31T01:03:02.321Z,98339.84
2017-10-31T01:03:33.977Z,98338.56
2017-10-31T01:04:05.625Z,98341.17
2017-10-31T01:04:37.277Z,98329.72
2017-10-31T01:05:09.160Z,98336.12
2017-10-31T01:05:40.850Z,98342.50
2017-10-31T01:06:12.498Z,98336.55
2017-10-31T01:06:44.399Z,98337.39
2017-10-31T01:07:16.094Z,98337.44
2017-10-31T01:07:47.741Z,98336.53
2017-10-31T01:08:19.619Z,98338.63
2017-10-31T01:08:51.574Z,98331.36
2017-10-31T01:09:23.242Z,98343.73
2017-10-31T01:09:54.898Z,98335.67
2017-10-31T01:10:26.554Z,98333.97
2017-10-31T01:10:58.206Z,98337.77
2017-10-31T01:11:29.858Z,98334.78
2017-10-31T01:12:01.688Z,98335.68
2017-10-31T01:12:33.389Z,98334.83
2017-10-31T01:13:05.034Z,98336.44
2017-10-31T01:13:36.681Z,98327.89
2017-10-31T01:14:08.327Z,98336.00
2017-10-31T01:14:39.978Z,98334.73
2017-10-31T01:15:11.625Z,98329.62
2017-10-31T01:15:43.274Z,98326.20
2017-10-31T01:16:14.926Z,98326.61
2017-10-31T01:16:46.569Z,98342.34
2017-10-31T01:17:18.460Z,98332.11
2017-10-31T01:17:50.408Z,98319.34
2017-10-31T01:18:22.061Z,98323.63
2017-10-31T01:18:53.709Z,98331.64
2017-10-31T01:19:25.540Z,98328.22
2017-10-31T01:19:57.197Z,98331.16
2017-10-31T01:20:28.924Z,98334.50
2017-10-31T01:21:00.574Z,98330.66
2017-10-31T01:21:32.225Z,98329.80
2017-10-31T01:22:03.874Z,98329.78
2017-10-31T01:22:35.525Z,98331.44
2017-10-31T01:23:07.375Z,98337.41
2017-10-31T01:23:39.026Z,98336.12
2017-10-31T01:24:11.138Z,98328.08
2017-10-31T01:24:42.790Z,98332.78
2017-10-31T01:25:14.442Z,98332.73
2017-10-31T01:25:46.103Z,98331.05
2017-10-31T01:26:17.753Z,98329.72
2017-10-31T01:26:49.405Z,98329.73
2017-10-31T01:27:21.191Z,98325.52
2017-10-31T01:27:52.841Z,98329.30
2017-10-31T01:28:24.546Z,98326.69
2017-10-31T01:28:56.424Z,98327.11
2017-10-31T01:29:28.078Z,98328.77
2017-10-31T01:29:59.730Z,98327.80
2017-10-31T01:30:31.415Z,98328.64
2017-10-31T01:31:03.300Z,98326.98
2017-10-31T01:31:35.244Z,98326.58
2017-10-31T01:32:07.154Z,98324.49
2017-10-31T01:32:38.806Z,98321.50
2017-10-31T01:33:10.478Z,98317.57
2017-10-31T01:33:42.174Z,98326.20
2017-10-31T01:34:13.828Z,98327.84
2017-10-31T01:34:45.714Z,98323.85
2017-10-31T01:35:17.366Z,98313.66
2017-10-31T01:35:49.026Z,98322.67
2017-10-31T01:36:20.674Z,98315.80
2017-10-31T01:36:52.322Z,98319.21
2017-10-31T01:37:23.973Z,98318.30
2017-10-31T01:37:55.625Z,98318.22
2017-10-31T01:38:27.514Z,98320.80
2017-10-31T01:38:59.210Z,98324.27
2017-10-31T01:39:30.858Z,98311.06
2017-10-31T01:40:02.522Z,98316.52
2017-10-31T01:40:34.389Z,98320.73
2017-10-31T01:41:06.338Z,98321.97
2017-10-31T01:41:38.287Z,98313.86
2017-10-31T01:42:09.942Z,98322.49
2017-10-31T01:42:41.626Z,98313.62
2017-10-31T01:43:13.278Z,98322.18
2017-10-31T01:43:44.929Z,98313.12
2017-10-31T01:44:16.808Z,98314.02
2017-10-31T01:44:48.459Z,98314.34
2017-10-31T01:45:20.105Z,98313.12
2017-10-31T01:45:51.759Z,98312.27
2017-10-31T01:46:23.417Z,98309.23
2017-10-31T01:46:55.072Z,98315.24
2017-10-31T01:47:26.963Z,98316.53
2017-10-31T01:47:58.613Z,98308.37
2017-10-31T01:48:30.267Z,98313.54
2017-10-31T01:49:01.910Z,98314.72
2017-10-31T01:49:33.730Z,98321.64
2017-10-31T01:50:05.478Z,98310.67
2017-10-31T01:50:37.131Z,98315.30
2017-10-31T01:51:08.822Z,98312.32
2017-10-31T01:51:40.713Z,98310.18
2017-10-31T01:52:12.372Z,98309.35
2017-10-31T01:52:44.022Z,98304.65
2017-10-31T01:53:15.705Z,98302.94
2017-10-31T01:53:47.432Z,98308.42
2017-10-31T01:54:19.230Z,98309.71
2017-10-31T01:54:50.877Z,98310.56
2017-10-31T01:55:22.530Z,98307.58
2017-10-31T01:55:54.230Z,98307.63
2017-10-31T01:56:25.886Z,98306.41
2017-10-31T01:56:57.741Z,98304.66
2017-10-31T01:57:29.403Z,98302.95
2017-10-31T01:58:01.061Z,98304.22
2017-10-31T01:58:32.745Z,98309.77
2017-10-31T01:59:04.621Z,98312.39
2017-10-31T01:59:36.270Z,98305.14
2017-10-31T02:00:08.109Z,98308.13
2017-10-31T02:00:39.761Z,98306.05
2017-10-31T02:01:12.724Z,98311.59
2017-10-31T02:01:44.374Z,98304.83
2017-10-31T02:02:16.058Z,98307.39
2017-10-31T02:02:47.710Z,98312.13
2017-10-31T02:03:19.366Z,98309.59
2017-10-31T02:03:51.211Z,98307.08
2017-10-31T02:04:22.882Z,98310.06
2017-10-31T02:04:54.831Z,98308.37
2017-10-31T02:05:26.751Z,98307.98
2017-10-31T02:05:58.423Z,98313.58
2017-10-31T02:06:30.074Z,98307.63
2017-10-31T02:07:01.717Z,98306.34
2017-10-31T02:07:33.408Z,98308.48
2017-10-31T02:08:05.054Z,98308.89
2017-10-31T02:08:36.893Z,98310.60
2017-10-31T02:09:08.581Z,98308.92
2017-10-31T02:09:40.230Z,98311.49
2017-10-31T02:10:11.877Z,98307.69
2017-10-31T02:10:43.525Z,98313.67
2017-10-31T02:11:15.457Z,98312.06
2017-10-31T02:11:47.106Z,98308.25
2017-10-31T02:12:18.793Z,98315.55
2017-10-31T02:12:50.634Z,98318.10
2017-10-31T02:13:22.286Z,98318.52
2017-10-31T02:13:53.939Z,98314.21
2017-10-31T02:14:25.614Z,98314.31
2017-10-31T02:14:57.499Z,98310.97
2017-10-31T02:15:29.513Z,98317.80
2017-10-31T02:16:01.458Z,98320.82
2017-10-31T02:16:33.145Z,98319.48
2017-10-31T02:17:05.053Z,98318.22
2017-10-31T02:17:36.704Z,98316.92
2017-10-31T02:18:08.354Z,98313.58
2017-10-31T02:18:40.006Z,98323.38
2017-10-31T02:19:11.653Z,98319.98
2017-10-31T02:19:43.302Z,98320.82
2017-10-31T02:20:14.950Z,98324.66
2017-10-31T02:20:46.597Z,98323.33
2017-10-31T02:21:18.246Z,98317.35
2017-10-31T02:21:49.889Z,98321.67
2017-10-31T02:22:21.582Z,98321.30
2017-10-31T02:22:53.230Z,98323.86
2017-10-31T02:23:24.882Z,98323.86
2017-10-31T02:23:56.537Z,98317.91
2017-10-31T02:24:28.186Z,98318.38
2017-10-31T02:24:59.833Z,98325.63
2017-10-31T02:25:31.481Z,98324.77
2017-10-31T02:26:03.130Z,98324.34
2017-10-31T02:26:34.915Z,98324.72
2017-10-31T02:27:06.566Z,98324.77
2017-10-31T02:27:38.210Z,98325.61
2017-10-31T02:28:09.854Z,98320.94
2017-10-31T02:28:41.792Z,98326.48
2017-10-31T02:29:13.442Z,98324.77
2017-10-31T02:29:45.094Z,98328.12
2017-10-31T02:30:16.744Z,98322.59
2017-10-31T02:30:48.398Z,98334.56
2017-10-31T02:31:20.045Z,98323.92
2017-10-31T02:31:51.697Z,98327.33
2017-10-31T02:32:23.590Z,98330.69
2017-10-31T02:32:55.423Z,98323.92
2017-10-31T02:33:27.182Z,98323.08
2017-10-31T02:33:59.130Z,98325.67
2017-10-31T02:34:30.785Z,98326.48
2017-10-31T02:35:02.434Z,98327.32
2017-10-31T02:35:34.081Z,98326.03
2017-10-31T02:36:05.729Z,98326.85
2017-10-31T02:36:37.538Z,98335.38
2017-10-31T02:37:09.288Z,98328.59
2017-10-31T02:37:40.942Z,98326.47
2017-10-31T02:38:12.681Z,98328.60
2017-10-31T02:38:44.375Z,98333.67
2017-10-31T02:39:16.040Z,98335.41
2017-10-31T02:39:47.806Z,98331.54
2017-10-31T02:40:19.458Z,98334.09
2017-10-31T02:40:51.106Z,98330.67
2017-10-31T02:41:22.758Z,98334.89
2017-10-31T02:41:54.403Z,98329.41
2017-10-31T02:42:26.153Z,98334.52
2017-10-31T02:42:57.805Z,98330.20
2017-10-31T02:43:29.462Z,98331.96
2017-10-31T02:44:01.248Z,98333.28
2017-10-31T02:44:32.898Z,98326.89
2017-10-31T02:45:04.550Z,98328.92
2017-10-31T02:45:36.201Z,98331.42
2017-10-31T02:46:07.853Z,98330.14
2017-10-31T02:46:39.505Z,98334.83
2017-10-31T02:47:11.155Z,98336.10
2017-10-31T02:47:43.048Z,98330.95
2017-10-31T02:48:14.702Z,98334.78
2017-10-31T02:48:46.531Z,98338.19
2017-10-31T02:49:18.282Z,98337.72
2017-10-31T02:49:49.938Z,98337.28
2017-10-31T02:50:21.590Z,98338.60
2017-10-31T02:50:53.245Z,98341.55
2017-10-31T02:51:25.053Z,98335.56
2017-10-31T02:51:56.710Z,98337.28
2017-10-31T02:52:28.399Z,98333.88
2017-10-31T02:53:00.079Z,98336.00
2017-10-31T02:53:31.770Z,98333.88
2017-10-31T02:54:03.426Z,98334.24
2017-10-31T02:54:35.314Z,98327.74
2017-10-31T02:55:06.969Z,98332.42
2017-10-31T02:55:38.618Z,98329.86
2017-10-31T02:56:10.265Z,98334.91
2017-10-31T02:56:41.922Z,98327.36
2017-10-31T02:57:13.573Z,98334.51
2017-10-31T02:57:45.229Z,98332.37
2017-10-31T02:58:16.921Z,98334.08
2017-10-31T02:58:48.570Z,98331.95
2017-10-31T02:59:20.217Z,98330.69
2017-10-31T02:59:51.867Z,98329.73
2017-10-31T03:00:23.524Z,98329.67
2017-10-31T03:00:55.193Z,98334.36
2017-10-31T03:01:26.967Z,98336.00
2017-10-31T03:01:58.634Z,98339.37
2017-10-31T03:02:30.281Z,98326.56
2017-10-31T03:03:02.133Z,98332.13
2017-10-31T03:03:33.841Z,98332.06
2017-10-31T03:04:05.489Z,98333.28
2017-10-31T03:04:37.497Z,98340.58
2017-10-31T03:05:09.382Z,98332.84
2017-10-31T03:05:41.033Z,98328.59
2017-10-31T03:06:12.874Z,98324.27
2017-10-31T03:06:44.534Z,98332.74
2017-10-31T03:07:16.185Z,98335.71
2017-10-31T03:07:47.830Z,98336.58
2017-10-31T03:08:19.542Z,98332.72
2017-10-31T03:08:51.189Z,98335.28
2017-10-31T03:09:22.839Z,98330.54
2017-10-31T03:09:54.541Z,98332.19
2017-10-31T03:10:26.190Z,98334.63
2017-10-31T03:10:58.037Z,98332.93
2017-10-31T03:11:30.053Z,98341.41
2017-10-31T03:12:01.910Z,98337.55
2017-10-31T03:12:33.596Z,98333.30
2017-10-31T03:13:05.250Z,98329.93
2017-10-31T03:13:36.902Z,98331.27
2017-10-31T03:14:08.551Z,98331.16
2017-10-31T03:14:40.203Z,98326.10
2017-10-31T03:15:12.114Z,98331.72
2017-10-31T03:15:44.062Z,98332.97
2017-10-31T03:16:15.947Z,98330.44
2017-10-31T03:16:47.597Z,98331.02
2017-10-31T03:17:19.252Z,98334.50
2017-10-31T03:17:50.938Z,98328.11
2017-10-31T03:18:22.589Z,98335.48
2017-10-31T03:18:54.238Z,98339.25
2017-10-31T03:19:25.893Z,98335.45
2017-10-31T03:19:57.541Z,98333.70
2017-10-31T03:20:29.417Z,98337.48
2017-10-31T03:21:01.123Z,98335.77
2017-10-31T03:21:32.766Z,98337.86
2017-10-31T03:22:04.413Z,98331.03
2017-10-31T03:22:36.302Z,98339.02
2017-10-31T03:23:07.970Z,98342.43
2017-10-31T03:23:39.849Z,98326.72
2017-10-31T03:24:11.498Z,98335.23
2017-10-31T03:24:43.147Z,98333.60
2017-10-31T03:25:14.801Z,98336.58
2017-10-31T03:25:46.487Z,98342.48
2017-10-31T03:26:18.137Z,98336.99
2017-10-31T03:26:49.785Z,98340.30
2017-10-31T03:27:21.433Z,98341.63
2017-10-31T03:27:53.130Z,98339.13
2017-10-31T03:28:25.004Z,98334.39
2017-10-31T03:28:56.653Z,98336.20
2017-10-31T03:29:28.305Z,98339.19
2017-10-31T03:29:59.949Z,98337.12
2017-10-31T03:30:31.597Z,98337.49
2017-10-31T03:31:03.247Z,98340.05
2017-10-31T03:31:34.909Z,98339.80
2017-10-31T03:32:06.557Z,98338.08
2017-10-31T03:32:38.399Z,98336.81
2017-10-31T03:33:10.396Z,98339.80
2017-10-31T03:33:42.045Z,98337.66
2017-10-31T03:34:13.694Z,98336.32
2017-10-31T03:34:45.350Z,98337.59
2017-10-31T03:35:16.998Z,98341.06
2017-10-31T03:35:48.649Z,98337.22
2017-10-31T03:36:20.299Z,98338.57
2017-10-31T03:36:51.949Z,98337.34
2017-10-31T03:37:23.835Z,98338.20
2017-10-31T03:37:55.538Z,98333.88
2017-10-31T03:38:27.190Z,98338.58
2017-10-31T03:38:58.968Z,98338.63
2017-10-31T03:39:30.622Z,98342.05
2017-10-31T03:40:02.560Z,98333.57
2017-10-31T03:40:34.213Z,98342.09
2017-10-31T03:41:05.857Z,98340.80
2017-10-31T03:41:37.501Z,98336.98
2017-10-31T03:42:09.149Z,98338.26
2017-10-31T03:42:40.793Z,98338.75
2017-10-31T03:43:12.486Z,98333.24
2017-10-31T03:43:44.155Z,98338.76
2017-10-31T03:44:15.810Z,98342.53
2017-10-31T03:44:47.457Z,98340.83
2017-10-31T03:45:19.281Z,98342.53
2017-10-31T03:45:51.230Z,98341.66
2017-10-31T03:46:22.978Z,98343.32
2017-10-31T03:46:54.634Z,98339.96
2017-10-31T03:47:26.290Z,98342.10
2017-10-31T03:47:58.191Z,98339.17
2017-10-31T03:48:29.854Z,98339.17
2017-10-31T03:49:01.749Z,98336.17
2017-10-31T03:49:33.402Z,98338.73
2017-10-31T03:50:05.087Z,98333.22
2017-10-31T03:50:36.737Z,98334.08
2017-10-31T03:51:08.390Z,98328.95
2017-10-31T03:51:40.038Z,98333.28
2017-10-31T03:52:11.690Z,98329.88
2017-10-31T03:52:43.337Z,98329.50
2017-10-31T03:53:15.246Z,98328.69
2017-10-31T03:53:47.087Z,98327.41
2017-10-31T03:54:18.733Z,98326.52
2017-10-31T03:54:50.479Z,98326.13
2017-10-31T03:55:22.138Z,98326.57
2017-10-31T03:55:53.782Z,98330.83
2017-10-31T03:56:25.433Z,98325.29
2017-10-31T03:56:57.081Z,98329.07
2017-10-31T03:57:28.725Z,98323.54
2017-10-31T03:58:00.637Z,98324.81
2017-10-31T03:58:32.285Z,98324.80
2017-10-31T03:59:03.933Z,98320.12
2017-10-31T03:59:35.581Z,98324.80
2017-10-31T04:00:07.234Z,98323.53
2017-10-31T04:00:38.878Z,98321.77
2017-10-31T04:01:10.525Z,98322.25
2017-10-31T04:01:42.169Z,98326.16
2017-10-31T04:02:13.818Z,98324.48
2017-10-31T04:02:45.473Z,98325.29
2017-10-31T04:03:17.174Z,98322.73
2017-10-31T04:03:48.825Z,98323.90
2017-10-31T04:04:20.471Z,98319.27
2017-10-31T04:04:52.117Z,98323.47
2017-10-31T04:05:23.773Z,98323.86
2017-10-31T04:05:55.421Z,98326.03
2017-10-31T04:06:27.074Z,98325.18
2017-10-31T04:06:58.726Z,98323.95
2017-10-31T04:07:30.499Z,98320.92
2017-10-31T04:08:02.153Z,98320.49
2017-10-31T04:08:33.841Z,98321.30
2017-10-31T04:09:05.732Z,98322.63
2017-10-31T04:09:37.383Z,98331.56
2017-10-31T04:10:09.214Z,98324.33
2017-10-31T04:10:40.870Z,98326.84
2017-10-31T04:11:12.518Z,98324.31
2017-10-31T04:11:44.208Z,98330.66
2017-10-31T04:12:15.890Z,98328.97
2017-10-31T04:12:47.541Z,98321.82
2017-10-31T04:13:19.190Z,98325.23
2017-10-31T04:13:50.846Z,98325.23
2017-10-31T04:14:22.498Z,98321.77
2017-10-31T04:14:54.145Z,98326.40
2017-10-31T04:15:25.801Z,98317.02
2017-10-31T04:15:57.649Z,98322.97
2017-10-31T04:16:29.308Z,98325.95
2017-10-31T04:17:01.290Z,98322.13
2017-10-31T04:17:32.942Z,98328.92
2017-10-31T04:18:04.594Z,98324.67
2017-10-31T04:18:36.515Z,98328.09
2017-10-31T04:19:08.209Z,98326.84
2017-10-31T04:19:39.863Z,98323.02
2017-10-31T04:20:11.721Z,98322.99
2017-10-31T04:20:43.391Z,98327.25
2017-10-31T04:21:15.042Z,98329.39
2017-10-31T04:21:46.693Z,98331.52
2017-10-31T04:22:18.346Z,98330.71
2017-10-31T04:22:49.997Z,98325.62
2017-10-31T04:23:21.650Z,98317.98
2017-10-31T04:23:53.302Z,98326.08
2017-10-31T04:24:25.193Z,98329.86
2017-10-31T04:24:56.841Z,98334.06
2017-10-31T04:25:28.485Z,98328.50
2017-10-31T04:26:00.174Z,98330.17
2017-10-31T04:26:32.017Z,98324.24
2017-10-31T04:27:04.014Z,98325.96
2017-10-31T04:27:35.664Z,98326.81
2017-10-31T04:28:07.310Z,98329.36
2017-10-31T04:28:38.961Z,98320.78
2017-10-31T04:29:10.609Z,98333.09
2017-10-31T04:29:42.261Z,98325.84
2017-10-31T04:30:13.918Z,98321.56
2017-10-31T04:30:45.571Z,98326.27
2017-10-31T04:31:17.222Z,98323.69
2017-10-31T04:31:49.100Z,98325.36
2017-10-31T04:32:20.755Z,98327.48
2017-10-31T04:32:52.405Z,98326.63
2017-10-31T04:33:24.054Z,98325.34
2017-10-31T04:33:55.973Z,98322.84
2017-10-31T04:34:27.625Z,98328.80
2017-10-31T04:34:59.468Z,98321.98
2017-10-31T04:35:31.121Z,98328.33
2017-10-31T04:36:02.790Z,98321.89
2017-10-31T04:36:34.788Z,98321.88
2017-10-31T04:37:06.438Z,98327.48
2017-10-31T04:37:38.108Z,98321.89
2017-10-31T04:38:09.758Z,98326.58
2017-10-31T04:38:41.401Z,98320.98
2017-10-31T04:39:13.049Z,98322.58
2017-10-31T04:39:44.702Z,98324.77
2017-10-31T04:40:16.353Z,98323.11
2017-10-31T04:40:48.010Z,98315.38
2017-10-31T04:41:19.662Z,98313.29
2017-10-31T04:41:51.365Z,98321.39
2017-10-31T04:42:23.020Z,98320.97
2017-10-31T04:42:54.807Z,98314.58
2017-10-31T04:43:26.478Z,98311.58
2017-10-31T04:43:58.178Z,98323.16
2017-10-31T04:44:29.826Z,98318.84
2017-10-31T04:45:01.691Z,98323.58
2017-10-31T04:45:33.354Z,98315.91
2017-10-31T04:46:05.009Z,98316.72
2017-10-31T04:46:36.665Z,98315.43
2017-10-31T04:47:08.556Z,98319.26
2017-10-31T04:47:40.207Z,98320.12
2017-10-31T04:48:11.857Z,98316.72
2017-10-31T04:48:43.502Z,98320.12
2017-10-31T04:49:15.431Z,98317.61
2017-10-31T04:49:47.081Z,98324.02
2017-10-31T04:50:18.730Z,98319.38
2017-10-31T04:50:50.374Z,98315.17
2017-10-31T04:51:22.026Z,98315.98
2017-10-31T04:51:53.677Z,98323.59
2017-10-31T04:52:25.591Z,98325.30
2017-10-31T04:52:57.291Z,98322.36
2017-10-31T04:53:29.181Z,98318.95
2017-10-31T04:54:00.833Z,98321.08
2017-10-31T04:54:32.486Z,98314.27
2017-10-31T04:55:04.137Z,98312.09
2017-10-31T04:55:35.786Z,98323.64
2017-10-31T04:56:07.437Z,98316.83
2017-10-31T04:56:39.090Z,98313.83
2017-10-31T04:57:10.738Z,98310.81
2017-10-31T04:57:42.389Z,98322.69
2017-10-31T04:58:14.073Z,98312.52
2017-10-31T04:58:45.718Z,98319.31
2017-10-31T04:59:17.549Z,98321.05
2017-10-31T04:59:49.201Z,98318.11
2017-10-31T05:00:20.854Z,98318.53
2017-10-31T05:00:52.502Z,98323.70
2017-10-31T05:01:24.316Z,98315.13
2017-10-31T05:01:56.065Z,98316.89
2017-10-31T05:02:28.016Z,98313.52
2017-10-31T05:02:59.713Z,98328.08
2017-10-31T05:03:31.605Z,98325.97
2017-10-31T05:04:03.485Z,98320.06
2017-10-31T05:04:35.133Z,98319.22
2017-10-31T05:05:06.782Z,98322.67
2017-10-31T05:05:38.441Z,98324.80
2017-10-31T05:06:10.123Z,98318.84
2017-10-31T05:06:42.000Z,98322.69
2017-10-31T05:07:13.713Z,98323.54
2017-10-31T05:07:45.385Z,98322.30
2017-10-31T05:08:17.030Z,98329.17
2017-10-31T05:08:48.678Z,98330.03
2017-10-31T05:09:20.326Z,98332.16
2017-10-31T05:09:51.973Z,98327.05
2017-10-31T05:10:23.769Z,98328.75
2017-10-31T05:10:55.421Z,98327.91
2017-10-31T05:11:27.065Z,98328.38
2017-10-31T05:11:58.714Z,98330.94
2017-10-31T05:12:30.436Z,98336.05
2017-10-31T05:13:02.085Z,98329.66
2017-10-31T05:13:33.733Z,98330.89
2017-10-31T05:14:05.382Z,98335.62
2017-10-31T05:14:37.033Z,98337.77
2017-10-31T05:15:08.681Z,98332.69
2017-10-31T05:15:40.329Z,98334.73
2017-10-31T05:16:11.978Z,98337.72
2017-10-31T05:16:43.633Z,98337.81
2017-10-31T05:17:15.294Z,98333.19
2017-10-31T05:17:46.982Z,98338.36
2017-10-31T05:18:18.809Z,98334.20
2017-10-31T05:18:50.459Z,98330.80
2017-10-31T05:19:22.114Z,98336.42
2017-10-31T05:19:54.041Z,98338.52
2017-10-31T05:20:25.694Z,98334.30
2017-10-31T05:20:57.346Z,98338.98
2017-10-31T05:21:28.999Z,98333.02
2017-10-31T05:22:00.649Z,98337.72
2017-10-31T05:22:32.297Z,98338.13
2017-10-31T05:23:04.199Z,98345.38
2017-10-31T05:23:36.075Z,98338.56
2017-10-31T05:24:08.049Z,98338.14
2017-10-31T05:24:39.702Z,98341.98
2017-10-31T05:25:11.381Z,98349.22
2017-10-31T05:25:43.037Z,98338.99
2017-10-31T05:26:14.717Z,98344.09
2017-10-31T05:27:24.397Z,98346.27
2017-10-31T05:27:56.263Z,98341.59
2017-10-31T05:28:27.953Z,98342.02
2017-10-31T05:28:59.633Z,98340.32
2017-10-31T05:29:31.321Z,98339.46
2017-10-31T05:30:02.979Z,98341.97
2017-10-31T05:30:34.866Z,98337.24
2017-10-31T05:31:06.730Z,98347.88
2017-10-31T05:31:38.382Z,98342.34
2017-10-31T05:32:10.026Z,98348.25
2017-10-31T05:32:41.673Z,98348.63
2017-10-31T05:33:13.322Z,98336.69
2017-10-31T05:33:44.974Z,98343.05
2017-10-31T05:34:16.625Z,98349.00
2017-10-31T05:34:48.318Z,98348.95
2017-10-31T05:35:19.961Z,98349.80
2017-10-31T05:35:51.609Z,98350.61
2017-10-31T05:36:23.266Z,98351.88
2017-10-31T05:36:54.918Z,98357.41
2017-10-31T05:37:26.570Z,98355.24
2017-10-31T05:37:58.359Z,98356.52
2017-10-31T05:38:30.110Z,98353.91
2017-10-31T05:39:01.762Z,98349.65
2017-10-31T05:39:33.466Z,98358.59
2017-10-31T05:40:05.343Z,98353.48
2017-10-31T05:40:36.994Z,98350.43
2017-10-31T05:41:08.645Z,98355.49
2017-10-31T05:41:40.298Z,98361.83
2017-10-31T05:42:11.969Z,98357.63
2017-10-31T05:42:43.628Z,98358.91
2017-10-31T05:43:15.508Z,98356.34
2017-10-31T05:43:47.173Z,98359.76
2017-10-31T05:44:18.820Z,98354.97
2017-10-31T05:44:50.735Z,98361.78
2017-10-31T05:45:22.661Z,98364.75
2017-10-31T05:45:54.632Z,98363.45
2017-10-31T05:46:26.282Z,98366.81
2017-10-31T05:46:57.945Z,98359.58
2017-10-31T05:47:29.597Z,98353.19
2017-10-31T05:48:01.238Z,98365.85
2017-10-31T05:48:32.894Z,98363.25
2017-10-31T05:49:04.546Z,98364.47
2017-10-31T05:49:36.197Z,98368.29
2017-10-31T05:50:07.890Z,98371.28
2017-10-31T05:50:39.534Z,98369.14
2017-10-31T05:51:11.185Z,98369.89
2017-10-31T05:51:43.000Z,98366.90
2017-10-31T05:52:14.649Z,98365.62
2017-10-31T05:52:46.301Z,98373.19
2017-10-31T05:53:18.233Z,98369.83
2017-10-31T05:53:49.886Z,98368.39
2017-10-31T05:54:21.537Z,98363.25
2017-10-31T05:54:53.185Z,98369.70
2017-10-31T05:55:24.831Z,98367.58
2017-10-31T05:55:56.479Z,98363.31
2017-10-31T05:56:28.302Z,98363.26
2017-10-31T05:56:59.997Z,98365.39
2017-10-31T05:57:31.675Z,98366.67
2017-10-31T05:58:03.326Z,98371.38
2017-10-31T05:58:34.969Z,98366.31
2017-10-31T05:59:06.621Z,98362.89
2017-10-31T05:59:38.277Z,98368.42
2017-10-31T06:00:09.925Z,98365.39
2017-10-31T06:00:41.834Z,98364.95
2017-10-31T06:01:13.716Z,98367.09
2017-10-31T06:01:45.362Z,98367.53
2017-10-31T06:02:17.009Z,98364.98
2017-10-31T06:02:48.657Z,98371.84
2017-10-31T06:03:20.305Z,98372.27
2017-10-31T06:03:51.961Z,98373.08
2017-10-31T06:04:23.662Z,98370.09
2017-10-31T06:04:55.306Z,98374.83
2017-10-31T06:05:26.949Z,98368.42
2017-10-31T06:05:58.598Z,98373.92
2017-10-31T06:06:30.245Z,98373.92
2017-10-31T06:07:01.893Z,98371.36
2017-10-31T06:07:33.545Z,98373.92
2017-10-31T06:08:05.396Z,98367.94
2017-10-31T06:08:37.083Z,98369.89
2017-10-31T06:09:08.735Z,98375.39
2017-10-31T06:09:40.425Z,98367.29
2017-10-31T06:10:12.312Z,98371.18
2017-10-31T06:10:43.962Z,98372.52
2017-10-31T06:11:15.609Z,98375.57
2017-10-31T06:11:47.253Z,98375.52
2017-10-31T06:12:18.902Z,98378.51
2017-10-31T06:12:50.554Z,98371.25